Time;durP1;ratioP1;P1;durP2;ratioP2;P2;SDS_P1;SDS_P2;PMS_P1;PMS_P2;Temp;Humidity;BMP_temperature;BMP_pressure;BME280_temperature;BME280_humidity;BME280_pressure;Samples;Min_cycle;Max_cycle;Signal;HPM_P1;HPM_P2
2022/02/17 00:00:35;;;;;;;6.83;2.33;;;18.60;57.50;;;;;;5016244;28;20624;-85
2022/02/17 00:03:03;;;;;;;8.40;2.63;;;18.60;57.40;;;;;;5016555;28;20517;-86
2022/02/17 00:05:32;;;;;;;8.67;3.03;;;18.60;57.50;;;;;;5014665;28;20499;-86
2022/02/17 00:08:00;;;;;;;8.97;3.00;;;18.60;57.40;;;;;;5014887;28;20441;-86
2022/02/17 00:10:29;;;;;;;7.57;2.07;;;18.60;57.40;;;;;;5017005;28;20441;-85
2022/02/17 00:12:57;;;;;;;6.87;2.30;;;18.60;57.30;;;;;;5016503;28;20449;-85
2022/02/17 00:15:26;;;;;;;5.67;2.80;;;18.60;57.20;;;;;;5014674;28;20488;-84
2022/02/17 00:17:54;;;;;;;15.23;3.43;;;18.60;57.10;;;;;;5015336;28;20472;-84
2022/02/17 00:20:22;;;;;;;10.23;3.03;;;18.60;57.20;;;;;;5016305;28;20464;-86
2022/02/17 00:22:51;;;;;;;11.33;3.13;;;18.60;57.00;;;;;;5015062;28;20460;-83
2022/02/17 00:25:19;;;;;;;5.53;2.60;;;18.60;56.90;;;;;;5012526;28;20508;-83
2022/02/17 00:27:47;;;;;;;10.47;3.00;;;18.60;56.70;;;;;;5012855;28;20426;-83
2022/02/17 00:30:17;;;;;;;9.90;2.70;;;18.60;56.80;;;;;;5011655;28;20474;-83
2022/02/17 00:32:45;;;;;;;6.13;2.53;;;18.60;56.60;;;;;;5012509;28;20456;-83
2022/02/17 00:35:13;;;;;;;6.50;2.20;;;18.60;56.70;;;;;;5012139;28;20450;-83
2022/02/17 00:37:41;;;;;;;9.13;2.63;;;18.60;56.60;;;;;;4998826;28;20425;-83
2022/02/17 00:40:11;;;;;;;6.87;2.60;;;18.60;56.60;;;;;;5000390;28;20452;-83
2022/02/17 00:42:39;;;;;;;8.07;2.53;;;18.60;56.50;;;;;;4995991;28;20484;-83
2022/02/17 00:45:07;;;;;;;9.47;2.30;;;18.60;56.40;;;;;;4994794;28;20496;-83
2022/02/17 00:47:35;;;;;;;5.07;2.10;;;18.60;56.90;;;;;;4995171;28;20457;-83
2022/02/17 00:50:04;;;;;;;6.53;2.23;;;18.60;56.20;;;;;;4995860;28;20464;-83
2022/02/17 00:52:32;;;;;;;12.50;2.87;;;18.60;56.20;;;;;;4992270;28;20457;-82
2022/02/17 00:55:00;;;;;;;7.77;2.50;;;18.60;56.20;;;;;;4995594;28;20485;-83
2022/02/17 00:57:29;;;;;;;6.57;2.63;;;18.60;56.10;;;;;;4995575;28;20551;-82
2022/02/17 00:59:57;;;;;;;7.90;2.30;;;18.60;55.90;;;;;;4993153;28;20461;-83
2022/02/17 01:02:25;;;;;;;7.30;2.67;;;18.60;55.90;;;;;;4996880;28;20489;-83
2022/02/17 01:04:53;;;;;;;8.77;2.70;;;18.60;55.80;;;;;;4996009;28;20488;-83
2022/02/17 01:07:21;;;;;;;7.90;2.20;;;18.60;55.80;;;;;;4997739;28;20485;-82
2022/02/17 01:09:49;;;;;;;5.77;2.40;;;18.60;55.80;;;;;;4997339;28;20445;-83
2022/02/17 01:12:17;;;;;;;8.30;2.40;;;18.60;55.90;;;;;;4998288;28;20451;-83
2022/02/17 01:14:46;;;;;;;6.77;2.10;;;18.60;55.70;;;;;;4998902;28;20528;-83
2022/02/17 01:17:14;;;;;;;6.20;2.50;;;18.60;55.60;;;;;;4998972;28;20430;-81
2022/02/17 01:19:42;;;;;;;9.40;2.77;;;18.60;55.50;;;;;;4999331;28;20442;-82
2022/02/17 01:22:12;;;;;;;10.30;2.33;;;18.60;55.80;;;;;;5000844;28;20472;-83
2022/02/17 01:24:40;;;;;;;12.13;2.90;;;18.60;55.40;;;;;;5000568;28;20532;-83
2022/02/17 01:27:08;;;;;;;8.37;2.37;;;18.50;55.30;;;;;;5000348;28;21046;-83
2022/02/17 01:29:36;;;;;;;6.80;2.33;;;18.50;55.40;;;;;;5001011;28;20433;-83
2022/02/17 01:32:06;;;;;;;9.20;2.80;;;18.50;55.30;;;;;;5001198;28;20434;-84
2022/02/17 01:34:34;;;;;;;7.53;2.20;;;18.50;55.40;;;;;;5002671;28;20465;-82
2022/02/17 01:37:02;;;;;;;10.87;2.90;;;18.50;55.40;;;;;;5002156;28;20500;-83
2022/02/17 01:39:30;;;;;;;8.20;2.70;;;18.40;55.30;;;;;;5000929;28;20468;-83
2022/02/17 01:41:59;;;;;;;7.63;2.10;;;18.40;55.30;;;;;;4999892;28;20420;-81
2022/02/17 01:44:27;;;;;;;6.80;2.67;;;18.40;55.40;;;;;;5000534;28;20473;-83
2022/02/17 01:46:55;;;;;;;9.33;2.50;;;18.40;55.30;;;;;;5001263;28;20474;-82
2022/02/17 01:49:24;;;;;;;6.17;2.43;;;18.40;55.20;;;;;;5003154;28;20446;-82
2022/02/17 01:51:52;;;;;;;8.90;3.00;;;18.40;55.00;;;;;;5004092;28;20460;-82
2022/02/17 01:54:21;;;;;;;11.63;2.83;;;18.40;55.20;;;;;;5001686;28;20461;-82
2022/02/17 01:56:49;;;;;;;10.80;3.20;;;18.50;55.00;;;;;;5002433;28;20429;-83
2022/02/17 01:59:17;;;;;;;8.50;2.80;;;18.50;54.80;;;;;;5002492;28;20463;-83
2022/02/17 02:01:45;;;;;;;11.37;2.70;;;18.50;54.80;;;;;;4999390;28;20473;-82
2022/02/17 02:04:13;;;;;;;9.77;3.10;;;18.40;54.70;;;;;;5004160;28;20456;-82
2022/02/17 02:06:43;;;;;;;6.43;2.37;;;18.40;54.80;;;;;;5003469;28;20461;-82
2022/02/17 02:12:35;;;;;;;8.53;2.50;;;18.40;54.60;;;;;;5001904;28;20448;-83
2022/02/17 02:15:04;;;;;;;7.07;2.43;;;18.30;54.60;;;;;;5003435;28;20460;-82
2022/02/17 02:17:33;;;;;;;12.13;2.53;;;18.40;54.60;;;;;;5003889;28;20426;-82
2022/02/17 02:20:02;;;;;;;8.20;2.17;;;18.30;54.50;;;;;;5003566;28;20441;-82
2022/02/17 02:22:32;;;;;;;8.93;2.43;;;18.30;54.70;;;;;;5005046;28;20452;-83
2022/02/17 02:25:00;;;;;;;9.50;2.33;;;18.30;54.40;;;;;;5005521;28;20485;-82
2022/02/17 02:27:28;;;;;;;9.27;2.10;;;18.30;54.50;;;;;;5007164;28;20479;-82
2022/02/17 02:29:56;;;;;;;7.07;2.30;;;18.30;54.40;;;;;;5004736;28;20453;-82
2022/02/17 02:32:24;;;;;;;7.20;2.50;;;18.30;54.40;;;;;;5001750;28;20508;-82
2022/02/17 02:34:52;;;;;;;10.67;3.20;;;18.30;54.40;;;;;;5006353;28;20449;-82
2022/02/17 02:37:20;;;;;;;7.93;2.43;;;18.20;54.10;;;;;;5003292;28;20499;-82
2022/02/17 02:39:49;;;;;;;11.60;2.67;;;18.20;54.30;;;;;;5003730;28;20450;-85
2022/02/17 02:42:17;;;;;;;13.37;3.00;;;18.20;54.30;;;;;;5002181;28;20487;-84
2022/02/17 02:44:45;;;;;;;5.67;2.13;;;18.20;54.40;;;;;;5001972;28;20472;-84
2022/02/17 02:47:13;;;;;;;9.30;2.70;;;18.10;54.30;;;;;;5005844;28;20477;-84
2022/02/17 02:49:41;;;;;;;8.70;2.50;;;18.10;54.20;;;;;;5004546;28;20449;-83
2022/02/17 02:52:09;;;;;;;10.53;2.67;;;18.10;54.30;;;;;;5006985;28;20433;-83
2022/02/17 02:54:37;;;;;;;8.17;2.23;;;18.10;54.20;;;;;;5005197;28;20500;-84
2022/02/17 02:57:06;;;;;;;7.33;2.10;;;18.10;54.10;;;;;;5005010;28;20461;-84
2022/02/17 02:59:36;;;;;;;5.63;2.30;;;18.10;54.20;;;;;;5007285;28;20469;-83
2022/02/17 03:02:04;;;;;;;5.70;2.10;;;18.10;54.00;;;;;;5001115;28;20488;-82
2022/02/17 03:04:32;;;;;;;9.57;2.77;;;18.10;54.00;;;;;;5002692;28;20473;-83
2022/02/17 03:07:00;;;;;;;10.83;3.07;;;18.10;54.00;;;;;;5006889;28;20472;-83
2022/02/17 03:09:30;;;;;;;8.83;2.27;;;18.10;53.80;;;;;;5012062;28;20453;-83
2022/02/17 03:11:58;;;;;;;6.17;2.40;;;18.10;53.50;;;;;;5012395;28;20449;-83
2022/02/17 03:14:27;;;;;;;10.30;2.80;;;18.00;53.50;;;;;;5013781;28;20468;-83
2022/02/17 03:16:55;;;;;;;8.20;2.00;;;18.10;53.40;;;;;;5013292;28;20437;-82
2022/02/17 03:19:23;;;;;;;8.67;2.67;;;18.00;53.30;;;;;;5010475;28;20608;-82
2022/02/17 03:21:50;;;;;;;8.83;2.50;;;18.00;53.30;;;;;;5014641;28;20472;-82
2022/02/17 03:24:18;;;;;;;7.90;1.77;;;18.00;53.30;;;;;;5014876;28;20445;-83
2022/02/17 03:26:46;;;;;;;9.50;2.63;;;18.00;53.20;;;;;;5010798;28;20502;-82
2022/02/17 03:29:14;;;;;;;6.90;2.87;;;18.00;53.20;;;;;;5009960;28;20445;-82
2022/02/17 03:31:43;;;;;;;8.67;2.60;;;17.90;53.20;;;;;;5010787;28;20433;-82
2022/02/17 03:34:11;;;;;;;6.70;2.30;;;18.00;53.30;;;;;;5010985;28;20495;-82
2022/02/17 03:36:39;;;;;;;10.60;2.90;;;17.90;53.20;;;;;;5007613;28;20452;-82
2022/02/17 03:39:07;;;;;;;9.43;2.63;;;17.90;53.30;;;;;;5010919;28;20519;-82
2022/02/17 03:41:35;;;;;;;6.63;2.33;;;17.90;53.20;;;;;;5011613;28;20436;-82
2022/02/17 03:44:03;;;;;;;11.93;2.23;;;17.90;53.20;;;;;;5011256;28;20445;-82
2022/02/17 03:46:31;;;;;;;6.30;2.30;;;17.90;53.10;;;;;;5013144;28;20449;-83
2022/02/17 03:49:00;;;;;;;7.50;2.53;;;17.90;52.90;;;;;;5013767;28;20538;-83
2022/02/17 03:51:28;;;;;;;13.10;3.07;;;17.90;52.90;;;;;;5014342;28;20448;-83
2022/02/17 03:53:56;;;;;;;13.60;2.53;;;17.90;52.90;;;;;;5011939;28;21006;-83
2022/02/17 03:56:24;;;;;;;6.37;2.30;;;17.90;53.00;;;;;;5013605;28;20461;-83
2022/02/17 04:01:37;;;;;;;5.73;2.40;;;17.90;52.80;;;;;;5013211;28;20436;-83
2022/02/17 04:04:07;;;;;;;10.20;2.80;;;17.90;52.80;;;;;;5012118;28;20465;-83
2022/02/17 04:06:35;;;;;;;8.93;2.57;;;17.90;53.00;;;;;;5012745;28;20443;-83
2022/02/17 04:09:03;;;;;;;9.10;2.97;;;17.80;52.80;;;;;;5012182;28;20504;-83
2022/02/17 04:11:31;;;;;;;6.73;2.40;;;17.80;52.80;;;;;;5008825;28;20449;-82
2022/02/17 04:14:00;;;;;;;8.23;2.43;;;17.90;52.60;;;;;;5011931;28;20440;-83
2022/02/17 04:16:29;;;;;;;9.07;2.67;;;17.90;52.50;;;;;;5012797;28;20433;-82
2022/02/17 04:18:58;;;;;;;7.63;2.70;;;17.90;52.60;;;;;;5009996;28;20445;-82
2022/02/17 04:21:27;;;;;;;11.33;3.00;;;17.90;52.50;;;;;;5009341;28;20457;-82
2022/02/17 04:23:55;;;;;;;13.30;2.63;;;17.90;52.40;;;;;;5009753;28;20417;-82
2022/02/17 04:26:23;;;;;;;15.70;2.97;;;17.80;52.20;;;;;;5005619;28;20782;-82
2022/02/17 04:28:51;;;;;;;8.50;2.47;;;17.80;52.30;;;;;;5005234;28;20474;-82
2022/02/17 04:31:19;;;;;;;15.50;3.50;;;17.80;52.10;;;;;;5007182;28;20443;-82
2022/02/17 04:33:47;;;;;;;8.83;2.77;;;17.80;52.00;;;;;;5007011;28;20456;-82
2022/02/17 04:36:15;;;;;;;12.13;2.70;;;17.80;52.10;;;;;;5006398;28;20453;-82
2022/02/17 04:38:44;;;;;;;12.93;3.03;;;17.80;52.00;;;;;;5006564;28;20445;-82
2022/02/17 04:43:58;;;;;;;10.10;2.63;;;17.80;51.80;;;;;;5005325;28;20520;-82
2022/02/17 04:46:26;;;;;;;5.93;2.67;;;17.70;51.70;;;;;;5007539;28;20437;-82
2022/02/17 04:48:54;;;;;;;9.27;2.57;;;17.80;51.70;;;;;;5007103;28;20461;-82
2022/02/17 04:51:22;;;;;;;7.57;2.90;;;17.80;51.80;;;;;;5010496;28;20450;-84
2022/02/17 04:53:52;;;;;;;8.37;2.73;;;17.80;51.80;;;;;;5010843;28;20434;-82
2022/02/17 04:56:20;;;;;;;7.43;2.23;;;17.70;51.70;;;;;;5010961;28;20449;-83
2022/02/17 04:58:48;;;;;;;7.63;2.57;;;17.80;51.80;;;;;;5011177;28;20445;-82
2022/02/17 05:01:15;;;;;;;6.80;2.37;;;17.80;51.70;;;;;;5008921;28;20485;-81
2022/02/17 05:03:43;;;;;;;9.80;3.10;;;17.80;51.70;;;;;;5012019;28;20438;-82
2022/02/17 05:06:11;;;;;;;9.90;2.97;;;17.80;51.80;;;;;;5011778;28;20457;-81
2022/02/17 05:08:39;;;;;;;15.73;2.13;;;17.70;51.60;;;;;;5011195;28;20469;-81
2022/02/17 05:11:08;;;;;;;8.57;2.53;;;17.80;51.70;;;;;;5011700;28;20473;-82
2022/02/17 05:13:36;;;;;;;11.23;2.90;;;17.80;51.70;;;;;;5011557;28;20434;-82
2022/02/17 05:16:05;;;;;;;8.10;2.50;;;17.70;51.80;;;;;;5011594;28;20480;-82
2022/02/17 05:18:34;;;;;;;7.13;2.33;;;17.70;51.80;;;;;;5009272;28;20460;-83
2022/02/17 05:21:02;;;;;;;8.97;2.33;;;17.70;51.70;;;;;;5011067;28;20456;-82
2022/02/17 05:23:30;;;;;;;10.80;2.40;;;17.70;51.40;;;;;;5011710;28;20449;-82
2022/02/17 05:25:58;;;;;;;12.67;2.83;;;17.70;51.60;;;;;;5011340;28;20480;-81
2022/02/17 05:28:27;;;;;;;8.03;2.50;;;17.70;51.40;;;;;;5011904;28;20509;-81
2022/02/17 05:30:55;;;;;;;8.60;2.50;;;17.70;51.40;;;;;;5010291;28;20441;-80
2022/02/17 05:33:23;;;;;;;10.10;3.03;;;17.70;51.20;;;;;;5012405;28;20426;-82
2022/02/17 05:35:52;;;;;;;7.17;2.90;;;17.70;51.20;;;;;;5009212;28;20462;-81
2022/02/17 05:38:20;;;;;;;12.13;2.67;;;17.70;51.40;;;;;;5011635;28;20464;-81
2022/02/17 05:40:48;;;;;;;8.03;2.27;;;17.70;51.40;;;;;;5011498;28;20434;-82
2022/02/17 05:43:15;;;;;;;8.40;2.53;;;17.70;51.40;;;;;;5011182;28;20476;-83
2022/02/17 05:45:45;;;;;;;10.07;3.00;;;17.70;51.30;;;;;;5010858;28;20441;-82
2022/02/17 05:48:13;;;;;;;11.40;2.40;;;17.70;51.40;;;;;;5011488;28;20476;-81
2022/02/17 05:50:40;;;;;;;11.20;2.60;;;17.70;51.20;;;;;;5011662;28;20438;-81
2022/02/17 05:53:08;;;;;;;6.57;2.23;;;17.70;51.30;;;;;;5005943;28;20449;-82
2022/02/17 05:55:36;;;;;;;5.97;2.60;;;17.60;51.30;;;;;;5010860;28;20461;-82
2022/02/17 05:58:04;;;;;;;7.63;2.23;;;17.60;51.20;;;;;;5011734;28;20449;-81
2022/02/17 06:00:32;;;;;;;9.40;2.40;;;17.60;51.70;;;;;;5011167;28;20449;-82
2022/02/17 06:03:01;;;;;;;9.00;2.60;;;17.60;51.20;;;;;;5011230;28;20520;-82
2022/02/17 06:05:29;;;;;;;8.20;2.30;;;17.70;51.10;;;;;;5010748;28;20477;-82
2022/02/17 06:07:59;;;;;;;15.07;2.60;;;17.70;51.10;;;;;;5011872;28;20476;-83
2022/02/17 06:10:27;;;;;;;9.53;2.10;;;17.70;51.20;;;;;;5009796;28;20471;-82
2022/02/17 06:12:55;;;;;;;9.40;2.50;;;17.70;51.00;;;;;;5010757;28;20445;-82
2022/02/17 06:15:23;;;;;;;13.50;3.03;;;17.70;51.00;;;;;;5010285;28;20462;-83
2022/02/17 06:17:51;;;;;;;7.40;2.57;;;17.70;51.00;;;;;;5010273;28;20450;-82
2022/02/17 06:20:20;;;;;;;8.67;2.60;;;17.70;50.90;;;;;;5010604;28;20425;-82
2022/02/17 06:22:49;;;;;;;8.73;2.73;;;17.70;50.80;;;;;;5010561;28;20452;-83
2022/02/17 06:25:19;;;;;;;15.70;3.47;;;17.70;50.70;;;;;;5010774;28;20466;-82
2022/02/17 06:27:47;;;;;;;9.13;3.20;;;17.70;50.80;;;;;;5006953;28;20457;-82
2022/02/17 06:30:15;;;;;;;12.07;3.07;;;17.60;50.90;;;;;;5011211;28;20465;-81
2022/02/17 06:32:47;;;;;;;6.20;2.80;;;17.60;50.80;;;;;;5010687;28;20434;-83
2022/02/17 06:35:17;;;;;;;9.73;3.00;;;17.50;50.90;;;;;;5011266;28;20464;-81
2022/02/17 06:37:46;;;;;;;10.27;3.00;;;17.60;51.00;;;;;;5010650;28;20461;-83
2022/02/17 06:40:14;;;;;;;10.43;2.50;;;17.60;51.00;;;;;;5010690;28;20406;-82
2022/02/17 06:42:42;;;;;;;12.10;2.60;;;17.60;50.80;;;;;;5007590;28;20437;-82
2022/02/17 06:45:11;;;;;;;11.10;3.20;;;17.60;50.80;;;;;;5009941;28;20457;-82
2022/02/17 06:47:39;;;;;;;11.97;3.40;;;17.60;51.00;;;;;;5010991;28;20452;-82
2022/02/17 06:50:09;;;;;;;9.33;2.60;;;17.50;50.90;;;;;;5010016;28;20889;-81
2022/02/17 06:52:37;;;;;;;10.50;2.83;;;17.60;50.90;;;;;;5011065;28;20425;-83
2022/02/17 06:55:07;;;;;;;10.03;2.53;;;17.60;50.80;;;;;;5010761;28;20484;-83
2022/02/17 06:57:35;;;;;;;10.70;2.70;;;17.60;50.80;;;;;;5010607;28;20468;-83
2022/02/17 07:00:05;;;;;;;10.13;2.70;;;17.50;50.90;;;;;;5007413;28;20488;-82
2022/02/17 07:02:34;;;;;;;15.33;3.30;;;17.50;50.80;;;;;;5010892;28;20422;-81
2022/02/17 07:05:03;;;;;;;7.73;2.70;;;17.60;50.90;;;;;;5011747;28;20496;-81
2022/02/17 07:07:32;;;;;;;15.63;3.40;;;17.60;50.80;;;;;;5012623;28;20445;-82
2022/02/17 07:10:00;;;;;;;9.63;3.00;;;17.50;50.60;;;;;;5013128;28;20473;-82
2022/02/17 07:12:29;;;;;;;10.97;2.97;;;17.50;50.70;;;;;;5011672;28;20456;-83
2022/02/17 07:14:58;;;;;;;8.20;2.53;;;17.50;50.90;;;;;;5011267;28;20496;-82
2022/02/17 07:17:26;;;;;;;8.63;2.50;;;17.40;50.90;;;;;;5007044;28;20453;-81
2022/02/17 07:19:54;;;;;;;12.90;2.60;;;17.40;51.20;;;;;;5005913;28;20492;-81
2022/02/17 07:22:22;;;;;;;6.20;2.87;;;17.40;51.00;;;;;;5005188;28;20421;-81
2022/02/17 07:24:50;;;;;;;7.27;2.50;;;17.40;51.30;;;;;;5004282;28;20475;-82
2022/02/17 07:27:18;;;;;;;14.10;3.17;;;17.40;51.60;;;;;;5005088;28;20438;-82
2022/02/17 07:29:48;;;;;;;8.73;2.50;;;17.40;51.70;;;;;;5005588;28;20528;-82
2022/02/17 07:32:16;;;;;;;10.83;2.90;;;17.40;51.70;;;;;;5005312;28;20469;-82
2022/02/17 07:34:43;;;;;;;10.30;2.93;;;17.40;51.70;;;;;;4995956;28;20481;-83
2022/02/17 07:37:16;;;;;;;10.00;2.80;;;17.40;51.80;;;;;;5004634;28;20925;-82
2022/02/17 07:39:44;;;;;;;13.73;2.47;;;17.40;51.80;;;;;;5006072;28;20442;-82
2022/02/17 07:42:13;;;;;;;8.90;3.20;;;17.40;51.90;;;;;;5005271;28;20437;-82
2022/02/17 07:44:41;;;;;;;10.00;2.70;;;17.40;51.70;;;;;;5004993;28;20520;-82
2022/02/17 07:47:10;;;;;;;8.43;3.20;;;17.40;51.80;;;;;;5005550;28;20445;-82
2022/02/17 07:49:38;;;;;;;8.27;2.37;;;17.40;51.70;;;;;;5004777;28;20531;-82
2022/02/17 07:52:07;;;;;;;12.43;2.20;;;17.50;51.70;;;;;;5002319;28;20461;-82
2022/02/17 07:54:34;;;;;;;8.07;2.80;;;17.50;51.60;;;;;;5006375;28;20492;-83
2022/02/17 07:57:03;;;;;;;8.53;2.77;;;17.50;51.70;;;;;;5008315;28;20468;-83
2022/02/17 07:59:32;;;;;;;7.30;2.27;;;17.50;51.80;;;;;;5007645;28;20429;-82
2022/02/17 08:02:00;;;;;;;9.30;2.40;;;17.50;51.60;;;;;;5006642;28;20499;-82
2022/02/17 08:04:30;;;;;;;5.30;2.23;;;17.50;51.60;;;;;;5007187;28;20457;-82
2022/02/17 08:06:58;;;;;;;6.80;2.60;;;17.60;51.50;;;;;;5007225;28;20449;-82
2022/02/17 08:09:26;;;;;;;9.60;3.03;;;17.60;51.40;;;;;;5002529;28;20479;-82
2022/02/17 08:11:54;;;;;;;14.23;2.80;;;17.60;51.30;;;;;;5008254;28;20445;-82
2022/02/17 08:14:22;;;;;;;9.67;2.90;;;17.60;51.50;;;;;;5008283;28;20468;-82
2022/02/17 08:16:50;;;;;;;10.63;2.83;;;17.50;51.40;;;;;;5009188;28;20433;-82
2022/02/17 08:19:20;;;;;;;11.60;3.00;;;17.50;51.50;;;;;;5008345;28;20536;-82
2022/02/17 08:21:49;;;;;;;9.60;2.27;;;17.50;51.60;;;;;;5008306;28;20472;-82
2022/02/17 08:24:17;;;;;;;9.77;2.80;;;17.50;51.70;;;;;;5005841;28;20515;-83
2022/02/17 08:26:45;;;;;;;12.60;3.00;;;17.50;51.60;;;;;;5005263;28;20471;-82
2022/02/17 08:29:13;;;;;;;7.67;2.90;;;17.50;51.70;;;;;;5007762;28;20450;-82
2022/02/17 08:31:42;;;;;;;9.63;3.17;;;17.50;51.70;;;;;;5008469;28;20445;-83
2022/02/17 08:34:10;;;;;;;12.70;2.73;;;17.50;51.70;;;;;;5007158;28;20460;-83
2022/02/17 08:36:38;;;;;;;6.77;2.53;;;17.50;51.70;;;;;;5006991;28;20441;-82
2022/02/17 08:39:08;;;;;;;10.23;2.43;;;17.50;51.60;;;;;;5008306;28;20452;-82
2022/02/17 08:41:39;;;;;;;7.00;2.43;;;17.60;51.60;;;;;;5008665;28;20426;-82
2022/02/17 08:44:07;;;;;;;8.90;3.17;;;17.60;51.60;;;;;;5006290;28;20449;-82
2022/02/17 08:46:35;;;;;;;6.67;2.27;;;17.60;51.50;;;;;;5008444;28;20425;-82
2022/02/17 08:49:05;;;;;;;9.17;2.57;;;17.60;51.40;;;;;;5006423;28;20436;-83
2022/02/17 08:51:33;;;;;;;6.33;2.23;;;17.60;51.60;;;;;;5007697;28;20469;-82
2022/02/17 08:54:01;;;;;;;6.90;2.33;;;17.60;51.50;;;;;;5007232;28;20433;-82
2022/02/17 08:56:30;;;;;;;6.60;2.80;;;17.60;51.60;;;;;;5006518;28;20440;-82
2022/02/17 08:58:59;;;;;;;12.30;2.90;;;17.60;51.40;;;;;;5004502;28;20461;-82
2022/02/17 09:01:29;;;;;;;7.60;2.80;;;17.60;51.40;;;;;;5006893;28;20437;-83
2022/02/17 09:03:57;;;;;;;7.13;2.57;;;17.60;51.30;;;;;;5007179;28;20441;-83
2022/02/17 09:06:25;;;;;;;11.53;2.70;;;17.60;51.40;;;;;;5007639;28;20488;-83
2022/02/17 09:08:53;;;;;;;10.37;2.50;;;17.50;51.40;;;;;;5008602;28;20430;-83
2022/02/17 09:11:21;;;;;;;10.23;2.90;;;17.50;51.50;;;;;;5008073;28;20473;-83
2022/02/17 09:13:50;;;;;;;7.27;2.03;;;17.40;51.70;;;;;;5007453;28;20441;-83
2022/02/17 09:16:18;;;;;;;10.70;2.80;;;17.40;51.80;;;;;;5005625;28;20477;-83
2022/02/17 09:18:46;;;;;;;9.00;2.63;;;17.40;51.90;;;;;;5007412;28;20457;-83
2022/02/17 09:21:16;;;;;;;8.20;2.40;;;17.30;52.00;;;;;;4992224;28;20505;-83
2022/02/17 09:23:44;;;;;;;9.20;2.63;;;17.30;52.10;;;;;;4992313;28;20454;-83
2022/02/17 09:26:12;;;;;;;6.50;2.23;;;17.30;52.20;;;;;;4995048;28;20523;-83
2022/02/17 09:28:41;;;;;;;9.70;2.60;;;17.30;52.20;;;;;;4995024;28;20476;-83
2022/02/17 09:31:30;;;;;;;9.20;2.93;;;17.30;52.20;;;;;;4989777;28;20476;-83
2022/02/17 09:33:58;;;;;;;7.17;2.37;;;17.30;52.20;;;;;;4994839;28;20446;-83
2022/02/17 09:36:26;;;;;;;7.70;2.50;;;17.30;52.20;;;;;;4994944;28;20589;-83
2022/02/17 09:38:54;;;;;;;6.90;2.93;;;17.30;52.30;;;;;;4995050;28;20430;-83
2022/02/17 09:41:22;;;;;;;6.47;2.73;;;17.30;52.20;;;;;;4993355;28;20450;-83
2022/02/17 09:43:51;;;;;;;10.93;2.80;;;17.30;52.70;;;;;;4993136;28;20436;-84
2022/02/17 09:46:21;;;;;;;9.90;2.73;;;17.30;52.50;;;;;;4997925;28;20449;-84
2022/02/17 09:48:55;;;;;;;8.17;2.50;;;17.30;52.20;;;;;;4996896;28;20449;-84
2022/02/17 09:51:24;;;;;;;7.97;2.27;;;17.30;52.20;;;;;;4997000;28;20480;-84
2022/02/17 09:53:52;;;;;;;8.83;2.70;;;17.40;52.20;;;;;;4996143;28;20515;-84
2022/02/17 09:56:22;;;;;;;11.10;3.80;;;17.50;52.30;;;;;;4997841;28;20457;-84
2022/02/17 09:58:50;;;;;;;4.97;2.40;;;17.50;52.10;;;;;;4995367;28;20440;-83
2022/02/17 10:01:18;;;;;;;4.20;1.97;;;17.60;52.10;;;;;;4992858;28;20508;-83
2022/02/17 10:03:47;;;;;;;14.53;2.80;;;17.70;52.00;;;;;;4995853;28;20473;-83
2022/02/17 10:06:29;;;;;;;6.07;2.70;;;17.80;52.10;;;;;;4995913;28;20429;-81
2022/02/17 10:09:02;;;;;;;10.73;2.73;;;18.00;51.70;;;;;;4994395;28;20457;-82
2022/02/17 10:11:30;;;;;;;5.80;2.00;;;18.10;51.50;;;;;;4994335;28;20512;-80
2022/02/17 10:13:59;;;;;;;12.00;2.87;;;18.30;51.50;;;;;;4994569;28;20495;-83
2022/02/17 10:16:27;;;;;;;10.17;2.73;;;18.50;51.70;;;;;;4991339;28;20449;-82
2022/02/17 10:18:56;;;;;;;8.17;2.50;;;18.70;50.90;;;;;;4994704;28;20481;-83
2022/02/17 10:21:23;;;;;;;10.90;3.40;;;18.70;50.70;;;;;;4991734;28;20961;-80
2022/02/17 10:23:55;;;;;;;10.83;2.73;;;18.70;50.50;;;;;;4994604;28;20440;-81
2022/02/17 10:26:25;;;;;;;5.07;2.30;;;18.90;50.90;;;;;;4995354;28;20527;-82
2022/02/17 10:28:57;;;;;;;9.27;2.50;;;19.10;50.00;;;;;;4994085;28;20823;-84
2022/02/17 10:31:26;;;;;;;14.17;3.30;;;19.20;49.80;;;;;;4995742;28;20552;-82
2022/02/17 10:33:54;;;;;;;9.47;2.77;;;19.20;49.70;;;;;;4994757;28;20453;-81
2022/02/17 10:36:33;;;;;;;10.80;2.90;;;19.30;49.40;;;;;;4995841;28;20457;-81
2022/02/17 10:39:13;;;;;;;10.13;2.37;;;19.30;48.90;;;;;;4992921;28;20945;-85
2022/02/17 10:41:45;;;;;;;13.67;2.70;;;19.20;48.80;;;;;;4999384;28;20441;-84
2022/02/17 10:44:13;;;;;;;5.97;2.23;;;19.10;48.70;;;;;;4994645;28;20462;-84
2022/02/17 10:46:41;;;;;;;9.40;2.70;;;19.00;48.80;;;;;;4996090;28;20447;-82
2022/02/17 10:49:12;;;;;;;10.30;3.03;;;18.90;48.80;;;;;;4998541;28;20453;-84
2022/02/17 10:51:40;;;;;;;7.20;2.30;;;18.70;48.80;;;;;;4996813;28;20536;-84
2022/02/17 10:54:08;;;;;;;13.23;2.93;;;18.60;49.10;;;;;;4981993;28;20438;-82
2022/02/17 10:56:38;;;;;;;8.60;2.30;;;18.50;49.40;;;;;;4993871;28;20446;-83
2022/02/17 11:02:02;;;;;;;8.07;2.57;;;18.40;49.90;;;;;;4986476;28;20453;-81
2022/02/17 11:04:30;;;;;;;6.67;2.80;;;18.60;50.30;;;;;;4984886;28;20470;-80
2022/02/17 11:06:58;;;;;;;21.60;2.73;;;18.70;50.10;;;;;;4986586;28;20453;-84
2022/02/17 11:09:26;;;;;;;25.40;3.80;;;19.00;49.90;;;;;;4991900;28;20441;-84
2022/02/17 11:11:55;;;;;;;19.50;3.80;;;16.70;49.20;;;;;;4995352;28;20480;-84
2022/02/17 11:14:39;;;;;;;22.23;4.10;;;15.50;51.90;;;;;;4996682;28;20488;-83
2022/02/17 11:17:07;;;;;;;25.67;4.53;;;14.50;53.30;;;;;;4996411;28;20806;-84
2022/02/17 11:19:50;;;;;;;15.50;3.40;;;14.60;53.00;;;;;;4995517;28;20425;-80
2022/02/17 11:22:20;;;;;;;19.20;3.67;;;13.70;53.80;;;;;;4995355;28;20469;-83
2022/02/17 11:24:52;;;;;;;17.00;3.50;;;13.20;54.20;;;;;;4996290;28;20453;-83
2022/02/17 11:27:21;;;;;;;23.60;3.53;;;13.10;55.00;;;;;;4993451;28;20465;-80
2022/02/17 11:29:50;;;;;;;13.07;3.23;;;12.90;55.70;;;;;;5009025;28;20467;-81
2022/02/17 11:32:22;;;;;;;15.40;3.73;;;14.00;59.20;;;;;;5009290;28;20525;-80
2022/02/17 11:34:58;;;;;;;16.43;2.97;;;15.20;56.70;;;;;;5010762;28;20446;-84
2022/02/17 11:37:33;;;;;;;16.77;3.30;;;16.00;54.40;;;;;;5009619;28;20456;-82
2022/02/17 11:40:02;;;;;;;18.10;3.30;;;16.60;52.80;;;;;;5008995;28;20452;-81
2022/02/17 11:42:36;;;;;;;12.73;2.60;;;17.10;51.70;;;;;;5010079;28;20480;-81
2022/02/17 11:45:10;;;;;;;22.13;3.27;;;17.60;51.10;;;;;;5005881;28;20469;-80
2022/02/17 11:47:57;;;;;;;12.03;3.40;;;18.00;50.40;;;;;;5011100;28;20950;-80
2022/02/17 11:50:39;;;;;;;12.40;3.20;;;18.60;50.40;;;;;;5012194;28;20445;-80
2022/02/17 11:53:26;;;;;;;13.40;2.83;;;19.70;49.20;;;;;;5010901;28;20467;-81
2022/02/17 11:55:55;;;;;;;9.80;2.67;;;20.10;46.60;;;;;;5012343;28;20465;-81
2022/02/17 11:58:47;;;;;;;13.47;3.30;;;20.30;46.90;;;;;;5011607;28;20440;-80
2022/02/17 12:01:38;;;;;;;8.30;2.57;;;20.40;46.40;;;;;;5009643;28;20457;-81
2022/02/17 12:04:09;;;;;;;9.90;2.40;;;20.40;46.40;;;;;;5010890;28;20429;-83
2022/02/17 12:06:58;;;;;;;8.37;2.43;;;20.30;46.30;;;;;;5011429;28;20429;-82
2022/02/17 12:09:35;;;;;;;18.07;2.93;;;20.10;46.60;;;;;;4998011;28;20933;-82
2022/02/17 12:12:38;;;;;;;12.93;3.47;;;19.90;46.70;;;;;;4999012;28;20564;-82
2022/02/17 12:15:14;;;;;;;11.13;3.03;;;19.80;47.10;;;;;;4979782;28;20988;-82
2022/02/17 12:17:44;;;;;;;7.73;2.87;;;19.60;47.20;;;;;;4988085;28;20448;-82
2022/02/17 12:20:13;;;;;;;7.30;2.03;;;19.50;47.30;;;;;;4997818;28;20606;-82
2022/02/17 12:22:56;;;;;;;8.50;2.80;;;19.50;47.70;;;;;;4999079;28;20449;-79
2022/02/17 12:25:26;;;;;;;15.33;3.20;;;19.50;47.70;;;;;;4999192;28;20469;-82
2022/02/17 12:27:56;;;;;;;10.03;2.73;;;19.50;48.10;;;;;;5000510;28;20475;-82
2022/02/17 12:30:27;;;;;;;6.47;2.80;;;19.60;47.60;;;;;;4999284;28;20504;-82
2022/02/17 12:33:03;;;;;;;12.80;2.80;;;19.50;47.70;;;;;;4980090;28;20466;-82
2022/02/17 12:35:31;;;;;;;10.43;2.67;;;19.50;48.10;;;;;;4994425;28;20476;-82
2022/02/17 12:38:04;;;;;;;8.00;2.63;;;19.50;47.80;;;;;;4999414;28;20429;-83
2022/02/17 12:40:32;;;;;;;13.60;3.03;;;19.50;47.70;;;;;;4997891;28;20437;-82
2022/02/17 12:43:00;;;;;;;7.37;2.60;;;19.60;48.20;;;;;;4999288;28;20488;-82
2022/02/17 12:45:51;;;;;;;11.90;2.63;;;19.80;48.20;;;;;;4998271;28;20524;-82
2022/02/17 12:48:19;;;;;;;11.63;2.20;;;19.80;47.80;;;;;;4997037;28;20547;-83
2022/02/17 12:51:06;;;;;;;11.90;2.57;;;19.80;48.40;;;;;;4997602;28;20504;-83
2022/02/17 12:53:59;;;;;;;10.07;2.30;;;19.70;47.60;;;;;;4998521;28;20473;-83
2022/02/17 12:56:29;;;;;;;8.60;2.40;;;19.60;47.90;;;;;;4999037;28;20453;-83
2022/02/17 12:59:03;;;;;;;13.33;2.90;;;20.00;47.60;;;;;;4997845;28;20458;-83
2022/02/17 13:01:33;;;;;;;5.40;2.40;;;19.90;47.30;;;;;;4999278;28;20445;-80
2022/02/17 13:04:01;;;;;;;9.30;2.93;;;20.00;47.30;;;;;;4999824;28;20445;-80
2022/02/17 13:06:29;;;;;;;9.33;2.50;;;20.00;47.50;;;;;;4995325;28;20441;-80